sensor_id;sensor_type;location;lat;lon;timestamp;P1;durP1;ratioP1;P2;durP2;ratioP2
10232;SDS011;5161;48.174;11.756;2024-02-15T00:01:30;2.70;;;2.50;;
10232;SDS011;5161;48.174;11.756;2024-02-15T00:03:56;2.67;;;2.47;;
10232;SDS011;5161;48.174;11.756;2024-02-15T00:06:22;3.30;;;2.40;;
10232;SDS011;5161;48.174;11.756;2024-02-15T00:08:48;2.50;;;2.30;;
10232;SDS011;5161;48.174;11.756;2024-02-15T00:11:15;2.53;;;2.33;;
10232;SDS011;5161;48.174;11.756;2024-02-15T00:13:40;2.20;;;2.10;;
10232;SDS011;5161;48.174;11.756;2024-02-15T00:16:06;2.37;;;2.17;;
10232;SDS011;5161;48.174;11.756;2024-02-15T00:18:32;2.40;;;2.20;;
10232;SDS011;5161;48.174;11.756;2024-02-15T00:20:57;2.63;;;2.33;;
10232;SDS011;5161;48.174;11.756;2024-02-15T00:23:25;2.40;;;2.20;;
10232;SDS011;5161;48.174;11.756;2024-02-15T00:25:50;2.37;;;2.23;;
10232;SDS011;5161;48.174;11.756;2024-02-15T00:28:16;2.50;;;2.30;;
10232;SDS011;5161;48.174;11.756;2024-02-15T00:30:42;2.43;;;2.23;;
10232;SDS011;5161;48.174;11.756;2024-02-15T00:33:07;4.00;;;2.23;;
10232;SDS011;5161;48.174;11.756;2024-02-15T00:35:33;2.23;;;2.13;;
10232;SDS011;5161;48.174;11.756;2024-02-15T00:37:58;2.60;;;2.40;;
10232;SDS011;5161;48.174;11.756;2024-02-15T00:40:24;2.47;;;2.20;;
10232;SDS011;5161;48.174;11.756;2024-02-15T00:42:50;2.33;;;2.13;;
10232;SDS011;5161;48.174;11.756;2024-02-15T00:45:15;2.30;;;2.20;;
10232;SDS011;5161;48.174;11.756;2024-02-15T00:47:41;3.50;;;2.30;;
10232;SDS011;5161;48.174;11.756;2024-02-15T00:50:07;2.37;;;2.20;;
10232;SDS011;5161;48.174;11.756;2024-02-15T00:52:34;3.03;;;2.40;;
10232;SDS011;5161;48.174;11.756;2024-02-15T00:54:59;2.60;;;2.20;;
10232;SDS011;5161;48.174;11.756;2024-02-15T00:57:25;2.50;;;2.30;;
10232;SDS011;5161;48.174;11.756;2024-02-15T00:59:50;4.10;;;2.20;;
10232;SDS011;5161;48.174;11.756;2024-02-15T01:02:17;2.33;;;2.23;;
10232;SDS011;5161;48.174;11.756;2024-02-15T01:04:43;2.23;;;2.13;;
10232;SDS011;5161;48.174;11.756;2024-02-15T01:07:10;2.60;;;2.40;;
10232;SDS011;5161;48.174;11.756;2024-02-15T01:09:36;2.37;;;2.20;;
10232;SDS011;5161;48.174;11.756;2024-02-15T01:12:01;2.70;;;2.50;;
10232;SDS011;5161;48.174;11.756;2024-02-15T01:14:28;2.57;;;2.37;;
10232;SDS011;5161;48.174;11.756;2024-02-15T01:16:55;2.40;;;2.20;;
10232;SDS011;5161;48.174;11.756;2024-02-15T01:19:21;2.73;;;2.53;;
10232;SDS011;5161;48.174;11.756;2024-02-15T01:21:47;2.23;;;2.13;;
10232;SDS011;5161;48.174;11.756;2024-02-15T01:24:12;3.23;;;2.40;;
10232;SDS011;5161;48.174;11.756;2024-02-15T01:26:38;2.00;;;1.90;;
10232;SDS011;5161;48.174;11.756;2024-02-15T01:29:03;2.30;;;2.10;;
10232;SDS011;5161;48.174;11.756;2024-02-15T01:31:29;3.00;;;2.10;;
10232;SDS011;5161;48.174;11.756;2024-02-15T01:33:55;2.47;;;2.27;;
10232;SDS011;5161;48.174;11.756;2024-02-15T01:36:21;2.10;;;2.00;;
10232;SDS011;5161;48.174;11.756;2024-02-15T01:38:46;3.20;;;2.50;;
10232;SDS011;5161;48.174;11.756;2024-02-15T01:41:12;2.20;;;2.10;;
10232;SDS011;5161;48.174;11.756;2024-02-15T01:43:37;2.10;;;2.00;;
10232;SDS011;5161;48.174;11.756;2024-02-15T01:46:08;2.37;;;2.20;;
10232;SDS011;5161;48.174;11.756;2024-02-15T01:48:40;2.57;;;2.37;;
10232;SDS011;5161;48.174;11.756;2024-02-15T01:51:07;2.20;;;2.10;;
10232;SDS011;5161;48.174;11.756;2024-02-15T01:53:35;2.40;;;2.13;;
10232;SDS011;5161;48.174;11.756;2024-02-15T01:56:00;2.00;;;1.90;;
10232;SDS011;5161;48.174;11.756;2024-02-15T01:58:27;2.27;;;2.10;;
10232;SDS011;5161;48.174;11.756;2024-02-15T02:00:56;2.33;;;1.93;;
10232;SDS011;5161;48.174;11.756;2024-02-15T02:03:22;1.97;;;1.87;;
10232;SDS011;5161;48.174;11.756;2024-02-15T02:05:48;1.90;;;1.70;;
10232;SDS011;5161;48.174;11.756;2024-02-15T02:08:13;2.13;;;2.03;;
10232;SDS011;5161;48.174;11.756;2024-02-15T02:10:39;2.20;;;2.00;;
10232;SDS011;5161;48.174;11.756;2024-02-15T02:13:05;1.90;;;1.80;;
10232;SDS011;5161;48.174;11.756;2024-02-15T02:15:31;2.03;;;1.93;;
10232;SDS011;5161;48.174;11.756;2024-02-15T02:17:58;2.80;;;1.83;;
10232;SDS011;5161;48.174;11.756;2024-02-15T02:20:25;2.17;;;1.73;;
10232;SDS011;5161;48.174;11.756;2024-02-15T02:22:51;2.10;;;2.00;;
10232;SDS011;5161;48.174;11.756;2024-02-15T02:25:21;2.00;;;1.90;;
10232;SDS011;5161;48.174;11.756;2024-02-15T02:27:51;1.97;;;1.87;;
10232;SDS011;5161;48.174;11.756;2024-02-15T02:30:17;1.80;;;1.70;;
10232;SDS011;5161;48.174;11.756;2024-02-15T02:32:44;1.90;;;1.80;;
10232;SDS011;5161;48.174;11.756;2024-02-15T02:35:10;1.80;;;1.70;;
10232;SDS011;5161;48.174;11.756;2024-02-15T02:37:37;1.80;;;1.70;;
10232;SDS011;5161;48.174;11.756;2024-02-15T02:40:04;1.60;;;1.60;;
10232;SDS011;5161;48.174;11.756;2024-02-15T02:42:33;1.90;;;1.80;;
10232;SDS011;5161;48.174;11.756;2024-02-15T02:45:00;1.90;;;1.80;;
10232;SDS011;5161;48.174;11.756;2024-02-15T02:47:26;2.90;;;2.00;;
10232;SDS011;5161;48.174;11.756;2024-02-15T02:49:51;1.77;;;1.60;;
10232;SDS011;5161;48.174;11.756;2024-02-15T02:52:17;1.90;;;1.67;;
10232;SDS011;5161;48.174;11.756;2024-02-15T02:54:43;1.90;;;1.80;;
10232;SDS011;5161;48.174;11.756;2024-02-15T02:57:08;2.17;;;1.90;;
10232;SDS011;5161;48.174;11.756;2024-02-15T02:59:34;1.80;;;1.70;;
10232;SDS011;5161;48.174;11.756;2024-02-15T03:02:00;1.90;;;1.80;;
10232;SDS011;5161;48.174;11.756;2024-02-15T03:04:27;2.00;;;1.90;;
10232;SDS011;5161;48.174;11.756;2024-02-15T03:06:52;1.80;;;1.70;;
10232;SDS011;5161;48.174;11.756;2024-02-15T03:09:20;1.90;;;1.80;;
10232;SDS011;5161;48.174;11.756;2024-02-15T03:11:47;1.90;;;1.80;;
10232;SDS011;5161;48.174;11.756;2024-02-15T03:14:14;1.90;;;1.80;;
10232;SDS011;5161;48.174;11.756;2024-02-15T03:16:40;1.87;;;1.77;;
10232;SDS011;5161;48.174;11.756;2024-02-15T03:19:05;1.60;;;1.57;;
10232;SDS011;5161;48.174;11.756;2024-02-15T03:21:34;1.97;;;1.87;;
10232;SDS011;5161;48.174;11.756;2024-02-15T03:23:59;1.90;;;1.70;;
10232;SDS011;5161;48.174;11.756;2024-02-15T03:26:31;2.20;;;2.00;;
10232;SDS011;5161;48.174;11.756;2024-02-15T03:29:05;1.73;;;1.73;;
10232;SDS011;5161;48.174;11.756;2024-02-15T03:31:32;1.97;;;1.73;;
10232;SDS011;5161;48.174;11.756;2024-02-15T03:34:01;2.60;;;1.60;;
10232;SDS011;5161;48.174;11.756;2024-02-15T03:36:27;1.97;;;1.87;;
10232;SDS011;5161;48.174;11.756;2024-02-15T03:38:54;1.90;;;1.80;;
10232;SDS011;5161;48.174;11.756;2024-02-15T03:41:20;1.90;;;1.73;;
10232;SDS011;5161;48.174;11.756;2024-02-15T03:43:45;2.70;;;1.70;;
10232;SDS011;5161;48.174;11.756;2024-02-15T03:46:13;1.90;;;1.63;;
10232;SDS011;5161;48.174;11.756;2024-02-15T03:48:42;2.27;;;1.87;;
10232;SDS011;5161;48.174;11.756;2024-02-15T03:51:15;2.20;;;2.00;;
10232;SDS011;5161;48.174;11.756;2024-02-15T03:53:42;2.20;;;1.93;;
10232;SDS011;5161;48.174;11.756;2024-02-15T03:56:08;2.47;;;1.80;;
10232;SDS011;5161;48.174;11.756;2024-02-15T03:58:33;1.90;;;1.80;;
10232;SDS011;5161;48.174;11.756;2024-02-15T04:01:00;1.93;;;1.83;;
10232;SDS011;5161;48.174;11.756;2024-02-15T04:03:25;2.20;;;1.90;;
10232;SDS011;5161;48.174;11.756;2024-02-15T04:05:51;2.23;;;1.80;;
10232;SDS011;5161;48.174;11.756;2024-02-15T04:08:17;4.67;;;2.00;;
10232;SDS011;5161;48.174;11.756;2024-02-15T04:10:43;1.90;;;1.80;;
10232;SDS011;5161;48.174;11.756;2024-02-15T04:13:10;1.57;;;1.57;;
10232;SDS011;5161;48.174;11.756;2024-02-15T04:15:36;1.80;;;1.70;;
10232;SDS011;5161;48.174;11.756;2024-02-15T04:18:02;3.43;;;1.80;;
10232;SDS011;5161;48.174;11.756;2024-02-15T04:20:28;1.90;;;1.80;;
10232;SDS011;5161;48.174;11.756;2024-02-15T04:22:54;2.20;;;2.10;;
10232;SDS011;5161;48.174;11.756;2024-02-15T04:25:21;1.80;;;1.70;;
10232;SDS011;5161;48.174;11.756;2024-02-15T04:27:52;2.23;;;1.80;;
10232;SDS011;5161;48.174;11.756;2024-02-15T04:30:18;4.27;;;1.87;;
10232;SDS011;5161;48.174;11.756;2024-02-15T04:32:45;1.80;;;1.70;;
10232;SDS011;5161;48.174;11.756;2024-02-15T04:35:11;2.10;;;1.90;;
10232;SDS011;5161;48.174;11.756;2024-02-15T04:37:37;2.93;;;1.70;;
10232;SDS011;5161;48.174;11.756;2024-02-15T04:40:03;1.73;;;1.50;;
10232;SDS011;5161;48.174;11.756;2024-02-15T04:42:38;4.03;;;1.90;;
10232;SDS011;5161;48.174;11.756;2024-02-15T04:45:04;5.03;;;1.73;;
10232;SDS011;5161;48.174;11.756;2024-02-15T04:47:33;1.80;;;1.70;;
10232;SDS011;5161;48.174;11.756;2024-02-15T04:49:59;1.67;;;1.57;;
10232;SDS011;5161;48.174;11.756;2024-02-15T04:52:25;1.80;;;1.70;;
10232;SDS011;5161;48.174;11.756;2024-02-15T04:54:50;1.90;;;1.80;;
10232;SDS011;5161;48.174;11.756;2024-02-15T04:57:18;2.73;;;1.77;;
10232;SDS011;5161;48.174;11.756;2024-02-15T04:59:44;2.07;;;1.53;;
10232;SDS011;5161;48.174;11.756;2024-02-15T05:02:12;3.70;;;1.80;;
10232;SDS011;5161;48.174;11.756;2024-02-15T05:04:38;2.20;;;1.77;;
10232;SDS011;5161;48.174;11.756;2024-02-15T05:07:07;1.77;;;1.63;;
10232;SDS011;5161;48.174;11.756;2024-02-15T05:09:33;1.70;;;1.60;;
10232;SDS011;5161;48.174;11.756;2024-02-15T05:11:59;2.57;;;1.60;;
10232;SDS011;5161;48.174;11.756;2024-02-15T05:14:27;3.70;;;1.70;;
10232;SDS011;5161;48.174;11.756;2024-02-15T05:16:53;1.87;;;1.70;;
10232;SDS011;5161;48.174;11.756;2024-02-15T05:19:18;3.27;;;2.00;;
10232;SDS011;5161;48.174;11.756;2024-02-15T05:21:45;2.20;;;1.63;;
10232;SDS011;5161;48.174;11.756;2024-02-15T05:24:14;1.83;;;1.70;;
10232;SDS011;5161;48.174;11.756;2024-02-15T05:26:40;6.27;;;1.70;;
10232;SDS011;5161;48.174;11.756;2024-02-15T05:29:12;5.57;;;1.87;;
10232;SDS011;5161;48.174;11.756;2024-02-15T05:31:38;6.40;;;2.10;;
10232;SDS011;5161;48.174;11.756;2024-02-15T05:34:05;2.10;;;1.70;;
10232;SDS011;5161;48.174;11.756;2024-02-15T05:36:33;2.00;;;1.70;;
10232;SDS011;5161;48.174;11.756;2024-02-15T05:38:59;5.27;;;1.73;;
10232;SDS011;5161;48.174;11.756;2024-02-15T05:41:25;2.97;;;1.70;;
10232;SDS011;5161;48.174;11.756;2024-02-15T05:43:50;3.87;;;1.70;;
10232;SDS011;5161;48.174;11.756;2024-02-15T05:46:19;3.40;;;1.67;;
10232;SDS011;5161;48.174;11.756;2024-02-15T05:48:48;8.43;;;2.00;;
10232;SDS011;5161;48.174;11.756;2024-02-15T05:51:14;5.57;;;1.90;;
10232;SDS011;5161;48.174;11.756;2024-02-15T05:53:40;4.97;;;1.87;;
10232;SDS011;5161;48.174;11.756;2024-02-15T05:56:06;3.33;;;1.80;;
10232;SDS011;5161;48.174;11.756;2024-02-15T05:58:33;5.23;;;1.90;;
10232;SDS011;5161;48.174;11.756;2024-02-15T06:01:00;3.40;;;1.73;;
10232;SDS011;5161;48.174;11.756;2024-02-15T06:03:27;3.73;;;2.03;;
10232;SDS011;5161;48.174;11.756;2024-02-15T06:05:53;5.77;;;2.03;;
10232;SDS011;5161;48.174;11.756;2024-02-15T06:08:23;8.97;;;2.43;;
10232;SDS011;5161;48.174;11.756;2024-02-15T06:10:49;9.00;;;2.10;;
10232;SDS011;5161;48.174;11.756;2024-02-15T06:13:15;11.63;;;2.50;;
10232;SDS011;5161;48.174;11.756;2024-02-15T06:15:41;13.63;;;2.67;;
10232;SDS011;5161;48.174;11.756;2024-02-15T06:18:06;11.77;;;2.40;;
10232;SDS011;5161;48.174;11.756;2024-02-15T06:20:35;6.43;;;2.60;;
10232;SDS011;5161;48.174;11.756;2024-02-15T06:23:01;6.03;;;2.10;;
10232;SDS011;5161;48.174;11.756;2024-02-15T06:25:32;11.10;;;3.13;;
10232;SDS011;5161;48.174;11.756;2024-02-15T06:27:58;10.90;;;3.40;;
10232;SDS011;5161;48.174;11.756;2024-02-15T06:30:27;7.90;;;3.50;;
10232;SDS011;5161;48.174;11.756;2024-02-15T06:33:14;9.57;;;3.10;;
10232;SDS011;5161;48.174;11.756;2024-02-15T06:35:58;11.03;;;3.00;;
10232;SDS011;5161;48.174;11.756;2024-02-15T06:38:42;8.03;;;2.90;;
10232;SDS011;5161;48.174;11.756;2024-02-15T06:41:26;6.80;;;2.70;;
10232;SDS011;5161;48.174;11.756;2024-02-15T06:43:53;9.50;;;3.00;;
10232;SDS011;5161;48.174;11.756;2024-02-15T06:46:18;4.60;;;2.47;;
10232;SDS011;5161;48.174;11.756;2024-02-15T06:48:44;8.27;;;2.50;;
10232;SDS011;5161;48.174;11.756;2024-02-15T06:51:13;6.83;;;2.70;;
10232;SDS011;5161;48.174;11.756;2024-02-15T06:53:39;8.80;;;2.70;;
10232;SDS011;5161;48.174;11.756;2024-02-15T06:56:05;7.63;;;2.70;;
10232;SDS011;5161;48.174;11.756;2024-02-15T06:58:33;7.83;;;2.77;;
10232;SDS011;5161;48.174;11.756;2024-02-15T07:01:00;9.10;;;2.83;;
10232;SDS011;5161;48.174;11.756;2024-02-15T07:03:27;12.50;;;2.57;;
10232;SDS011;5161;48.174;11.756;2024-02-15T07:05:54;12.70;;;2.90;;
10232;SDS011;5161;48.174;11.756;2024-02-15T07:08:21;7.50;;;2.97;;
10232;SDS011;5161;48.174;11.756;2024-02-15T07:10:48;4.30;;;2.40;;
10232;SDS011;5161;48.174;11.756;2024-02-15T07:13:14;7.13;;;2.73;;
10232;SDS011;5161;48.174;11.756;2024-02-15T07:15:39;9.27;;;3.03;;
10232;SDS011;5161;48.174;11.756;2024-02-15T07:18:05;13.87;;;3.20;;
10232;SDS011;5161;48.174;11.756;2024-02-15T07:20:31;11.83;;;3.37;;
10232;SDS011;5161;48.174;11.756;2024-02-15T07:22:57;9.30;;;2.90;;
10232;SDS011;5161;48.174;11.756;2024-02-15T07:25:23;6.33;;;2.90;;
10232;SDS011;5161;48.174;11.756;2024-02-15T07:27:49;8.07;;;2.70;;
10232;SDS011;5161;48.174;11.756;2024-02-15T07:30:14;9.37;;;3.47;;
10232;SDS011;5161;48.174;11.756;2024-02-15T07:32:40;20.73;;;4.17;;
10232;SDS011;5161;48.174;11.756;2024-02-15T07:35:05;27.87;;;4.73;;
10232;SDS011;5161;48.174;11.756;2024-02-15T07:37:32;12.67;;;3.57;;
10232;SDS011;5161;48.174;11.756;2024-02-15T07:39:58;11.80;;;3.13;;
10232;SDS011;5161;48.174;11.756;2024-02-15T07:42:24;9.33;;;2.73;;
10232;SDS011;5161;48.174;11.756;2024-02-15T07:44:51;5.93;;;2.63;;
10232;SDS011;5161;48.174;11.756;2024-02-15T07:47:17;6.70;;;2.60;;
10232;SDS011;5161;48.174;11.756;2024-02-15T07:49:45;5.83;;;2.93;;
10232;SDS011;5161;48.174;11.756;2024-02-15T07:52:11;3.87;;;2.60;;
10232;SDS011;5161;48.174;11.756;2024-02-15T07:54:38;3.47;;;2.57;;
10232;SDS011;5161;48.174;11.756;2024-02-15T07:57:04;3.47;;;2.43;;
10232;SDS011;5161;48.174;11.756;2024-02-15T07:59:30;4.90;;;2.70;;
10232;SDS011;5161;48.174;11.756;2024-02-15T08:01:55;4.13;;;2.37;;
10232;SDS011;5161;48.174;11.756;2024-02-15T08:04:21;7.07;;;2.80;;
10232;SDS011;5161;48.174;11.756;2024-02-15T08:06:48;6.10;;;2.70;;
10232;SDS011;5161;48.174;11.756;2024-02-15T08:09:15;5.27;;;2.57;;
10232;SDS011;5161;48.174;11.756;2024-02-15T08:11:43;4.30;;;3.10;;
10232;SDS011;5161;48.174;11.756;2024-02-15T08:14:08;8.50;;;2.87;;
10232;SDS011;5161;48.174;11.756;2024-02-15T08:16:35;4.73;;;3.13;;
10232;SDS011;5161;48.174;11.756;2024-02-15T08:19:02;4.93;;;2.70;;
10232;SDS011;5161;48.174;11.756;2024-02-15T08:21:30;6.43;;;2.80;;
10232;SDS011;5161;48.174;11.756;2024-02-15T08:23:58;5.50;;;2.60;;
10232;SDS011;5161;48.174;11.756;2024-02-15T08:26:24;12.23;;;3.30;;
10232;SDS011;5161;48.174;11.756;2024-02-15T08:28:50;4.87;;;3.00;;
10232;SDS011;5161;48.174;11.756;2024-02-15T08:31:16;8.93;;;3.07;;
10232;SDS011;5161;48.174;11.756;2024-02-15T08:33:41;8.70;;;3.23;;
10232;SDS011;5161;48.174;11.756;2024-02-15T08:36:11;3.20;;;2.90;;
10232;SDS011;5161;48.174;11.756;2024-02-15T08:38:39;4.57;;;2.93;;
10232;SDS011;5161;48.174;11.756;2024-02-15T08:41:06;10.23;;;3.30;;
10232;SDS011;5161;48.174;11.756;2024-02-15T08:43:33;10.07;;;3.60;;
10232;SDS011;5161;48.174;11.756;2024-02-15T08:46:00;8.63;;;3.40;;
10232;SDS011;5161;48.174;11.756;2024-02-15T08:48:26;7.77;;;3.20;;
10232;SDS011;5161;48.174;11.756;2024-02-15T08:50:52;11.47;;;3.50;;
10232;SDS011;5161;48.174;11.756;2024-02-15T08:53:17;6.10;;;3.30;;
10232;SDS011;5161;48.174;11.756;2024-02-15T08:55:47;3.57;;;3.23;;
10232;SDS011;5161;48.174;11.756;2024-02-15T08:58:13;5.77;;;2.90;;
10232;SDS011;5161;48.174;11.756;2024-02-15T09:00:38;7.27;;;3.00;;
10232;SDS011;5161;48.174;11.756;2024-02-15T09:03:09;4.67;;;2.67;;
10232;SDS011;5161;48.174;11.756;2024-02-15T09:05:35;3.20;;;2.90;;
10232;SDS011;5161;48.174;11.756;2024-02-15T09:08:01;3.10;;;2.60;;
10232;SDS011;5161;48.174;11.756;2024-02-15T09:10:29;2.80;;;2.40;;
10232;SDS011;5161;48.174;11.756;2024-02-15T09:12:55;2.87;;;2.67;;
10232;SDS011;5161;48.174;11.756;2024-02-15T09:15:21;4.27;;;2.27;;
10232;SDS011;5161;48.174;11.756;2024-02-15T09:17:47;6.60;;;2.53;;
10232;SDS011;5161;48.174;11.756;2024-02-15T09:20:14;2.23;;;2.07;;
10232;SDS011;5161;48.174;11.756;2024-02-15T09:22:43;2.20;;;2.00;;
10232;SDS011;5161;48.174;11.756;2024-02-15T09:25:16;3.30;;;2.03;;
10232;SDS011;5161;48.174;11.756;2024-02-15T09:27:42;5.13;;;2.53;;
10232;SDS011;5161;48.174;11.756;2024-02-15T09:30:08;7.47;;;3.00;;
10232;SDS011;5161;48.174;11.756;2024-02-15T09:32:41;3.50;;;2.63;;
10232;SDS011;5161;48.174;11.756;2024-02-15T09:35:07;2.20;;;2.10;;
10232;SDS011;5161;48.174;11.756;2024-02-15T09:37:37;5.23;;;2.40;;
10232;SDS011;5161;48.174;11.756;2024-02-15T09:40:09;2.63;;;2.20;;
10232;SDS011;5161;48.174;11.756;2024-02-15T09:42:35;2.90;;;2.30;;
10232;SDS011;5161;48.174;11.756;2024-02-15T09:45:04;3.20;;;2.03;;
10232;SDS011;5161;48.174;11.756;2024-02-15T09:47:34;4.33;;;2.40;;
10232;SDS011;5161;48.174;11.756;2024-02-15T09:50:01;5.10;;;2.50;;
10232;SDS011;5161;48.174;11.756;2024-02-15T09:52:28;3.57;;;2.30;;
10232;SDS011;5161;48.174;11.756;2024-02-15T09:54:57;9.57;;;2.60;;
10232;SDS011;5161;48.174;11.756;2024-02-15T09:57:23;3.87;;;2.97;;
10232;SDS011;5161;48.174;11.756;2024-02-15T09:59:52;2.30;;;2.10;;
10232;SDS011;5161;48.174;11.756;2024-02-15T10:02:18;2.07;;;1.97;;
10232;SDS011;5161;48.174;11.756;2024-02-15T10:04:46;3.13;;;2.20;;
10232;SDS011;5161;48.174;11.756;2024-02-15T10:07:13;4.03;;;1.80;;
10232;SDS011;5161;48.174;11.756;2024-02-15T10:09:38;2.33;;;1.80;;
10232;SDS011;5161;48.174;11.756;2024-02-15T10:12:07;3.00;;;1.80;;
10232;SDS011;5161;48.174;11.756;2024-02-15T10:14:34;1.70;;;1.60;;
10232;SDS011;5161;48.174;11.756;2024-02-15T10:17:05;2.53;;;1.80;;
10232;SDS011;5161;48.174;11.756;2024-02-15T10:19:36;2.13;;;1.67;;
10232;SDS011;5161;48.174;11.756;2024-02-15T10:22:08;2.83;;;1.83;;
10232;SDS011;5161;48.174;11.756;2024-02-15T10:24:35;1.73;;;1.60;;
10232;SDS011;5161;48.174;11.756;2024-02-15T10:27:02;2.30;;;1.60;;
10232;SDS011;5161;48.174;11.756;2024-02-15T10:29:29;1.70;;;1.60;;
10232;SDS011;5161;48.174;11.756;2024-02-15T10:31:57;1.70;;;1.60;;
10232;SDS011;5161;48.174;11.756;2024-02-15T10:34:27;2.13;;;1.83;;
10232;SDS011;5161;48.174;11.756;2024-02-15T10:36:53;2.70;;;1.70;;
10232;SDS011;5161;48.174;11.756;2024-02-15T10:39:21;1.33;;;1.33;;
10232;SDS011;5161;48.174;11.756;2024-02-15T10:41:51;2.47;;;1.70;;
10232;SDS011;5161;48.174;11.756;2024-02-15T10:44:22;1.60;;;1.50;;
10232;SDS011;5161;48.174;11.756;2024-02-15T10:46:49;5.70;;;1.40;;
10232;SDS011;5161;48.174;11.756;2024-02-15T10:49:20;1.93;;;1.30;;
10232;SDS011;5161;48.174;11.756;2024-02-15T10:51:50;2.10;;;1.60;;
10232;SDS011;5161;48.174;11.756;2024-02-15T10:56:54;1.50;;;1.40;;
10232;SDS011;5161;48.174;11.756;2024-02-15T10:59:28;1.40;;;1.40;;
10232;SDS011;5161;48.174;11.756;2024-02-15T11:01:59;1.60;;;1.50;;
10232;SDS011;5161;48.174;11.756;2024-02-15T11:04:27;1.27;;;1.23;;
10232;SDS011;5161;48.174;11.756;2024-02-15T11:06:57;1.50;;;1.40;;
10232;SDS011;5161;48.174;11.756;2024-02-15T11:09:25;2.20;;;1.43;;
10232;SDS011;5161;48.174;11.756;2024-02-15T11:11:53;1.50;;;1.40;;
10232;SDS011;5161;48.174;11.756;2024-02-15T11:14:24;1.90;;;1.60;;
10232;SDS011;5161;48.174;11.756;2024-02-15T11:16:58;1.70;;;1.50;;
10232;SDS011;5161;48.174;11.756;2024-02-15T11:22:00;4.97;;;1.60;;
10232;SDS011;5161;48.174;11.756;2024-02-15T11:24:30;1.60;;;1.50;;
10232;SDS011;5161;48.174;11.756;2024-02-15T11:27:05;1.93;;;1.77;;
10232;SDS011;5161;48.174;11.756;2024-02-15T11:35:23;1.70;;;1.60;;
10232;SDS011;5161;48.174;11.756;2024-02-15T11:37:50;2.10;;;1.23;;
10232;SDS011;5161;48.174;11.756;2024-02-15T11:42:49;2.10;;;1.50;;
10232;SDS011;5161;48.174;11.756;2024-02-15T11:45:18;3.20;;;1.50;;
10232;SDS011;5161;48.174;11.756;2024-02-15T11:47:44;2.17;;;1.50;;
10232;SDS011;5161;48.174;11.756;2024-02-15T11:50:15;2.00;;;1.50;;
10232;SDS011;5161;48.174;11.756;2024-02-15T11:52:46;1.67;;;1.40;;
10232;SDS011;5161;48.174;11.756;2024-02-15T11:55:14;3.27;;;1.50;;
10232;SDS011;5161;48.174;11.756;2024-02-15T11:57:54;2.63;;;1.40;;
10232;SDS011;5161;48.174;11.756;2024-02-15T12:00:26;3.30;;;1.60;;
10232;SDS011;5161;48.174;11.756;2024-02-15T12:03:10;1.33;;;1.30;;
10232;SDS011;5161;48.174;11.756;2024-02-15T12:05:58;3.20;;;1.60;;
10232;SDS011;5161;48.174;11.756;2024-02-15T12:08:46;1.70;;;1.60;;
10232;SDS011;5161;48.174;11.756;2024-02-15T12:11:31;1.70;;;1.50;;
10232;SDS011;5161;48.174;11.756;2024-02-15T12:14:15;1.77;;;1.63;;
10232;SDS011;5161;48.174;11.756;2024-02-15T12:19:48;4.93;;;1.67;;
10232;SDS011;5161;48.174;11.756;2024-02-15T12:22:17;1.70;;;1.60;;
10232;SDS011;5161;48.174;11.756;2024-02-15T12:24:52;1.70;;;1.60;;
10232;SDS011;5161;48.174;11.756;2024-02-15T12:27:41;1.50;;;1.40;;
10232;SDS011;5161;48.174;11.756;2024-02-15T12:30:17;1.80;;;1.70;;
10232;SDS011;5161;48.174;11.756;2024-02-15T12:32:50;11.30;;;2.07;;
10232;SDS011;5161;48.174;11.756;2024-02-15T12:35:19;2.10;;;1.90;;
10232;SDS011;5161;48.174;11.756;2024-02-15T12:37:47;2.00;;;1.90;;
10232;SDS011;5161;48.174;11.756;2024-02-15T12:40:18;2.10;;;2.00;;
10232;SDS011;5161;48.174;11.756;2024-02-15T12:42:47;2.80;;;2.37;;
10232;SDS011;5161;48.174;11.756;2024-02-15T12:45:16;2.10;;;2.00;;
10232;SDS011;5161;48.174;11.756;2024-02-15T12:47:45;2.30;;;2.10;;
10232;SDS011;5161;48.174;11.756;2024-02-15T12:50:18;2.10;;;2.00;;
10232;SDS011;5161;48.174;11.756;2024-02-15T12:52:45;2.10;;;2.00;;
10232;SDS011;5161;48.174;11.756;2024-02-15T12:55:16;1.80;;;1.70;;
10232;SDS011;5161;48.174;11.756;2024-02-15T12:57:47;1.83;;;1.73;;
10232;SDS011;5161;48.174;11.756;2024-02-15T13:00:19;1.90;;;1.80;;
10232;SDS011;5161;48.174;11.756;2024-02-15T13:02:46;2.00;;;1.80;;
10232;SDS011;5161;48.174;11.756;2024-02-15T13:05:16;1.90;;;1.80;;
10232;SDS011;5161;48.174;11.756;2024-02-15T13:07:43;1.83;;;1.73;;
10232;SDS011;5161;48.174;11.756;2024-02-15T13:10:10;1.87;;;1.77;;
10232;SDS011;5161;48.174;11.756;2024-02-15T13:12:36;1.70;;;1.60;;
10232;SDS011;5161;48.174;11.756;2024-02-15T13:15:03;1.90;;;1.77;;
10232;SDS011;5161;48.174;11.756;2024-02-15T13:17:31;1.77;;;1.67;;
10232;SDS011;5161;48.174;11.756;2024-02-15T13:19:58;1.63;;;1.53;;
10232;SDS011;5161;48.174;11.756;2024-02-15T13:22:31;1.93;;;1.73;;
10232;SDS011;5161;48.174;11.756;2024-02-15T13:24:57;1.63;;;1.53;;
10232;SDS011;5161;48.174;11.756;2024-02-15T13:27:23;1.93;;;1.80;;
10232;SDS011;5161;48.174;11.756;2024-02-15T13:29:49;1.60;;;1.60;;
10232;SDS011;5161;48.174;11.756;2024-02-15T13:32:15;2.30;;;1.67;;
10232;SDS011;5161;48.174;11.756;2024-02-15T13:34:42;2.70;;;1.80;;
10232;SDS011;5161;48.174;11.756;2024-02-15T13:37:10;2.10;;;1.80;;
10232;SDS011;5161;48.174;11.756;2024-02-15T13:39:38;4.27;;;1.70;;
10232;SDS011;5161;48.174;11.756;2024-02-15T13:42:08;1.80;;;1.70;;
10232;SDS011;5161;48.174;11.756;2024-02-15T13:44:33;2.27;;;1.73;;
10232;SDS011;5161;48.174;11.756;2024-02-15T13:46:59;2.80;;;1.80;;
10232;SDS011;5161;48.174;11.756;2024-02-15T13:49:25;1.83;;;1.73;;
10232;SDS011;5161;48.174;11.756;2024-02-15T13:51:51;4.23;;;1.80;;
10232;SDS011;5161;48.174;11.756;2024-02-15T13:54:17;2.03;;;1.90;;
10232;SDS011;5161;48.174;11.756;2024-02-15T13:56:43;1.93;;;1.83;;
10232;SDS011;5161;48.174;11.756;2024-02-15T13:59:09;1.90;;;1.80;;
10232;SDS011;5161;48.174;11.756;2024-02-15T14:01:34;2.13;;;2.03;;
10232;SDS011;5161;48.174;11.756;2024-02-15T14:04:08;1.67;;;1.57;;
10232;SDS011;5161;48.174;11.756;2024-02-15T14:06:34;1.80;;;1.70;;
10232;SDS011;5161;48.174;11.756;2024-02-15T14:09:01;2.33;;;1.90;;
10232;SDS011;5161;48.174;11.756;2024-02-15T14:11:28;2.20;;;2.10;;
10232;SDS011;5161;48.174;11.756;2024-02-15T14:13:53;2.07;;;1.97;;
10232;SDS011;5161;48.174;11.756;2024-02-15T14:16:23;1.90;;;1.80;;
10232;SDS011;5161;48.174;11.756;2024-02-15T14:18:49;2.20;;;2.10;;
10232;SDS011;5161;48.174;11.756;2024-02-15T14:21:15;2.10;;;2.00;;
10232;SDS011;5161;48.174;11.756;2024-02-15T14:23:41;2.00;;;1.90;;
10232;SDS011;5161;48.174;11.756;2024-02-15T14:26:07;2.13;;;2.03;;
10232;SDS011;5161;48.174;11.756;2024-02-15T14:28:32;1.73;;;1.73;;
10232;SDS011;5161;48.174;11.756;2024-02-15T14:30:59;1.90;;;1.80;;
10232;SDS011;5161;48.174;11.756;2024-02-15T14:33:43;3.33;;;1.87;;
10232;SDS011;5161;48.174;11.756;2024-02-15T14:36:09;1.97;;;1.77;;
10232;SDS011;5161;48.174;11.756;2024-02-15T14:38:35;2.03;;;1.90;;
10232;SDS011;5161;48.174;11.756;2024-02-15T14:41:00;1.80;;;1.70;;
10232;SDS011;5161;48.174;11.756;2024-02-15T14:43:27;1.80;;;1.67;;
10232;SDS011;5161;48.174;11.756;2024-02-15T14:45:53;2.50;;;1.93;;
10232;SDS011;5161;48.174;11.756;2024-02-15T14:48:21;3.83;;;1.97;;
10232;SDS011;5161;48.174;11.756;2024-02-15T14:50:48;1.67;;;1.57;;
10232;SDS011;5161;48.174;11.756;2024-02-15T14:53:15;1.90;;;1.70;;
10232;SDS011;5161;48.174;11.756;2024-02-15T14:55:43;3.27;;;1.70;;
10232;SDS011;5161;48.174;11.756;2024-02-15T14:58:11;2.67;;;1.50;;
10232;SDS011;5161;48.174;11.756;2024-02-15T15:00:37;1.70;;;1.60;;
10232;SDS011;5161;48.174;11.756;2024-02-15T15:03:04;2.47;;;1.80;;
10232;SDS011;5161;48.174;11.756;2024-02-15T15:05:30;2.27;;;1.67;;
10232;SDS011;5161;48.174;11.756;2024-02-15T15:08:15;2.07;;;1.60;;